Terminal Aerodrome Forecast
Issued by NWS

Home | Current Version | Previous Version | Text Only | Print | Product List | Glossary On
Versions: 1 2 3 4 5 6 7 8 9 10 11 12 13 14 15 16 17
000
FTUS42 KTBW 290539
TAFPIE
TAF
KPIE 290539Z 2906/3006 11006KT P6SM FEW020 BKN250
     FM291400 11007KT P6SM SCT025 BKN250
     FM291700 05005KT P6SM VCTS SCT035CB SCT130 BKN250
     FM292000 33007KT P6SM VCTS SCT040CB BKN130
     FM300000 06006KT P6SM SCT040 SCT130 BKN250=

USA.gov is the U.S. government's official web portal to all federal, state and local government web resources and services.